Time;durP1;ratioP1;P1;durP2;ratioP2;P2;SDS_P1;SDS_P2;PMS_P1;PMS_P2;Temp;Humidity;BMP_temperature;BMP_pressure;BME280_temperature;BME280_humidity;BME280_pressure;Samples;Min_cycle;Max_cycle;Signal;HPM_P1;HPM_P2
2022/06/15 00:00:55;;;;;;;5.80;4.85;;;;;;;19.32;46.83;99542.94;5086464;28;20101;-69
2022/06/15 00:03:22;;;;;;;7.57;4.20;;;;;;;19.23;46.47;99540.09;5086177;28;20052;-68
2022/06/15 00:05:51;;;;;;;5.65;3.70;;;;;;;19.23;46.75;99548.16;5085271;28;20106;-68
2022/06/15 00:08:19;;;;;;;5.07;3.28;;;;;;;19.20;46.61;99542.19;5086374;28;20056;-68
2022/06/15 00:10:47;;;;;;;4.18;3.20;;;;;;;18.55;47.03;99442.25;5086379;28;20056;-68
2022/06/15 00:13:17;;;;;;;6.10;4.00;;;;;;;18.49;46.19;99429.31;5085808;28;20045;-69
2022/06/15 00:15:48;;;;;;;7.55;3.63;;;;;;;19.14;46.43;99534.69;5086038;28;20086;-68
2022/06/15 00:18:15;;;;;;;8.55;3.88;;;;;;;19.08;46.78;99541.44;5085987;28;20114;-68
2022/06/15 00:20:42;;;;;;;5.45;3.53;;;;;;;19.06;46.34;99539.88;5086130;28;20090;-68
2022/06/15 00:23:11;;;;;;;5.05;3.35;;;;;;;19.04;46.76;99534.63;5086145;28;20057;-68
2022/06/15 00:25:38;;;;;;;6.18;3.25;;;;;;;18.99;46.62;99542.25;5086106;28;20258;-69
2022/06/15 00:28:05;;;;;;;8.10;3.20;;;;;;;18.96;46.50;99539.81;5085686;28;20056;-68
2022/06/15 00:30:32;;;;;;;4.70;2.75;;;;;;;18.95;46.35;99540.81;5086027;28;20052;-69
2022/06/15 00:32:59;;;;;;;4.47;2.95;;;;;;;18.91;46.36;99539.38;5085956;28;20048;-69
2022/06/15 00:35:26;;;;;;;5.18;2.80;;;;;;;18.84;46.96;99538.19;5085955;28;20056;-68
2022/06/15 00:37:54;;;;;;;4.75;2.80;;;;;;;18.76;46.68;99536.16;5085910;28;20243;-68
2022/06/15 00:40:22;;;;;;;4.93;3.10;;;;;;;18.82;46.68;99540.16;5085487;28;20061;-68
2022/06/15 00:42:49;;;;;;;5.70;2.70;;;;;;;18.79;46.49;99538.59;5085585;28;20382;-69
2022/06/15 00:45:16;;;;;;;5.10;3.10;;;;;;;18.75;46.98;99531.78;5085791;28;20090;-69
2022/06/15 00:47:46;;;;;;;3.83;2.60;;;;;;;18.10;46.95;99419.34;5085445;28;20052;-69
2022/06/15 00:50:19;;;;;;;4.32;3.22;;;;;;;18.78;47.21;99531.53;5085387;28;20235;-69
2022/06/15 00:52:52;;;;;;;5.55;3.20;;;;;;;18.76;47.52;99529.94;5085716;28;20056;-69
2022/06/15 00:55:26;;;;;;;4.55;3.28;;;;;;;18.71;47.42;99532.19;5085724;28;20048;-69
2022/06/15 00:57:55;;;;;;;4.73;3.50;;;;;;;18.65;47.41;99530.03;5085499;28;20086;-69
2022/06/15 01:00:23;;;;;;;3.95;2.55;;;;;;;18.64;47.05;99526.50;5085562;28;20117;-70
2022/06/15 01:02:50;;;;;;;5.20;3.35;;;;;;;18.62;47.79;99520.41;5085606;28;20060;-70
2022/06/15 01:05:20;;;;;;;6.03;2.83;;;;;;;18.63;47.71;99519.41;5085225;28;20060;-69
2022/06/15 01:08:22;;;;;;;7.65;4.90;;;;;;;18.61;49.34;99523.22;5085304;28;20114;-69
2022/06/15 01:11:22;;;;;;;16.17;14.48;;;;;;;18.55;49.45;99528.13;5085495;28;20048;-69
2022/06/15 01:14:11;;;;;;;7.78;6.00;;;;;;;18.52;49.20;99527.53;5085325;28;20075;-69
2022/06/15 01:16:46;;;;;;;6.35;4.15;;;;;;;18.32;49.27;99494.31;5082175;28;20064;-69
2022/06/15 01:19:37;;;;;;;4.47;3.50;;;;;;;18.45;50.08;99527.19;5084915;28;20052;-70
2022/06/15 01:22:18;;;;;;;8.25;3.58;;;;;;;18.32;49.71;99528.34;5085411;28;20243;-69
2022/06/15 01:25:02;;;;;;;5.43;3.60;;;;;;;18.13;49.95;99494.16;5085364;28;20056;-67
2022/06/15 01:28:01;;;;;;;4.85;3.53;;;;;;;18.36;49.77;99527.09;5085173;28;20052;-67
2022/06/15 01:30:41;;;;;;;4.72;3.35;;;;;;;18.34;49.92;99523.69;5085336;28;20219;-67
2022/06/15 01:33:23;;;;;;;5.82;3.53;;;;;;;18.40;49.33;99525.88;5085303;28;20118;-67
2022/06/15 01:36:00;;;;;;;10.05;3.35;;;;;;;18.38;49.33;99519.78;5085007;28;20056;-67
2022/06/15 01:38:36;;;;;;;4.70;3.28;;;;;;;18.30;49.58;99528.47;5085290;28;20057;-66
2022/06/15 01:41:10;;;;;;;5.07;3.30;;;;;;;18.34;49.18;99529.06;5085105;28;20094;-66
2022/06/15 01:43:42;;;;;;;5.38;3.20;;;;;;;18.33;48.85;99524.69;5085127;28;20350;-67
2022/06/15 01:46:12;;;;;;;4.55;3.42;;;;;;;18.27;49.14;99520.69;5085095;28;20095;-66
2022/06/15 01:48:40;;;;;;;6.20;3.53;;;;;;;18.25;49.08;99526.19;5085150;28;20102;-67
2022/06/15 01:51:14;;;;;;;5.55;3.40;;;;;;;18.22;49.49;99523.75;5084853;28;20048;-67
2022/06/15 01:53:46;;;;;;;6.15;3.28;;;;;;;18.23;49.77;99528.13;5084895;28;20114;-67
2022/06/15 01:56:18;;;;;;;7.45;3.80;;;;;;;17.81;49.75;99478.94;5085103;28;20250;-67
2022/06/15 01:58:58;;;;;;;4.90;3.35;;;;;;;18.17;49.84;99528.66;5084898;28;20114;-67
2022/06/15 02:01:36;;;;;;;5.47;3.13;;;;;;;18.16;50.89;99528.78;5084623;28;20106;-66
2022/06/15 02:04:10;;;;;;;4.93;3.58;;;;;;;18.12;51.06;99521.97;5084781;28;20056;-67
2022/06/15 02:06:56;;;;;;;4.93;3.45;;;;;;;18.08;51.01;99528.56;5084700;28;20117;-66
2022/06/15 02:09:33;;;;;;;6.22;3.58;;;;;;;18.06;50.90;99528.69;5084975;28;20263;-66
2022/06/15 02:12:03;;;;;;;6.90;3.30;;;;;;;18.05;50.68;99523.47;5084963;28;20098;-67
2022/06/15 02:14:35;;;;;;;4.72;3.42;;;;;;;18.04;51.41;99529.81;5084569;28;20056;-67
2022/06/15 02:17:08;;;;;;;4.05;3.20;;;;;;;18.05;51.28;99531.50;5084842;28;20293;-67
2022/06/15 02:19:42;;;;;;;4.93;2.92;;;;;;;17.99;51.31;99518.59;5084913;28;20064;-67
2022/06/15 02:22:13;;;;;;;5.43;3.75;;;;;;;17.95;51.37;99521.53;5084547;28;20263;-68
2022/06/15 02:24:42;;;;;;;4.72;3.20;;;;;;;17.93;51.55;99525.34;5084685;28;20363;-68
2022/06/15 02:27:12;;;;;;;4.88;3.20;;;;;;;17.91;51.04;99525.47;5084517;28;20056;-68
2022/06/15 02:29:42;;;;;;;5.68;3.60;;;;;;;17.87;51.47;99521.34;5085704;28;20056;-68
2022/06/15 02:32:12;;;;;;;4.65;3.33;;;;;;;17.86;51.62;99519.63;5087863;28;20090;-68
2022/06/15 02:34:40;;;;;;;6.72;3.60;;;;;;;17.84;51.80;99521.59;5088247;28;20251;-68
2022/06/15 02:37:08;;;;;;;5.90;3.88;;;;;;;17.63;51.62;99504.59;5088231;28;20056;-68
2022/06/15 02:39:35;;;;;;;5.03;3.47;;;;;;;17.71;51.71;99520.03;5087768;28;20267;-68
2022/06/15 02:42:04;;;;;;;6.78;3.65;;;;;;;17.72;51.63;99527.09;5088090;28;20317;-68
2022/06/15 02:44:35;;;;;;;6.53;3.83;;;;;;;17.69;51.91;99527.34;5088294;28;20245;-68
2022/06/15 02:47:02;;;;;;;5.78;3.28;;;;;;;17.61;51.89;99525.31;5087835;28;20109;-67
2022/06/15 02:49:31;;;;;;;4.22;3.38;;;;;;;17.58;52.60;99530.88;5087997;28;20057;-68
2022/06/15 02:52:03;;;;;;;5.10;3.78;;;;;;;17.56;52.88;99533.69;5087929;28;20098;-67
2022/06/15 02:54:35;;;;;;;7.38;3.67;;;;;;;17.52;52.48;99534.06;5087974;28;20049;-67
2022/06/15 02:57:03;;;;;;;6.55;4.10;;;;;;;17.48;51.97;99530.78;5087933;28;20049;-67
2022/06/15 02:59:30;;;;;;;5.47;3.80;;;;;;;17.47;52.61;99533.56;5087831;28;20312;-67
2022/06/15 03:01:58;;;;;;;9.90;4.30;;;;;;;17.48;53.11;99533.44;5087441;28;20056;-67
2022/06/15 03:04:25;;;;;;;4.78;3.67;;;;;;;17.40;52.76;99530.53;5087205;28;20068;-67
2022/06/15 03:06:54;;;;;;;4.70;3.15;;;;;;;17.44;52.71;99528.47;5087441;28;20049;-67
2022/06/15 03:09:21;;;;;;;4.60;3.65;;;;;;;17.43;52.19;99521.41;5087383;28;20056;-67
2022/06/15 03:11:48;;;;;;;5.28;3.50;;;;;;;17.42;52.53;99527.72;5087618;28;20258;-68
2022/06/15 03:14:16;;;;;;;5.05;3.45;;;;;;;17.38;52.41;99528.97;5087612;28;20053;-67
2022/06/15 03:16:47;;;;;;;7.28;3.88;;;;;;;17.35;52.94;99529.19;5087553;28;20113;-68
2022/06/15 03:19:15;;;;;;;6.47;4.28;;;;;;;17.33;52.63;99540.03;5087794;28;20082;-68
2022/06/15 03:21:42;;;;;;;5.63;4.20;;;;;;;17.30;53.77;99525.06;5087277;28;20052;-67
2022/06/15 03:24:10;;;;;;;5.53;3.45;;;;;;;17.34;52.78;99516.78;5087271;28;20048;-68
2022/06/15 03:26:38;;;;;;;3.83;3.13;;;;;;;17.31;53.14;99524.09;5087324;28;20060;-68
2022/06/15 03:29:05;;;;;;;4.20;3.60;;;;;;;17.34;52.79;99517.63;5087270;28;20060;-68
2022/06/15 03:31:33;;;;;;;7.40;3.50;;;;;;;16.75;53.76;99420.66;5086817;28;20090;-67
2022/06/15 03:34:00;;;;;;;4.78;3.17;;;;;;;17.33;53.39;99529.31;5086979;28;20363;-67
2022/06/15 03:36:27;;;;;;;6.43;4.25;;;;;;;17.33;53.15;99523.97;5087079;28;20312;-67
2022/06/15 03:38:54;;;;;;;7.55;3.90;;;;;;;17.29;53.42;99530.53;5087044;28;20243;-68
2022/06/15 03:41:23;;;;;;;5.32;4.03;;;;;;;17.30;53.92;99527.75;5086358;28;20052;-68
2022/06/15 03:43:50;;;;;;;9.48;4.32;;;;;;;17.29;53.49;99531.41;5087159;28;20372;-67
2022/06/15 03:46:17;;;;;;;6.28;3.58;;;;;;;17.16;53.25;99513.72;5086907;28;20320;-67
2022/06/15 03:48:45;;;;;;;5.32;3.80;;;;;;;17.32;53.70;99527.63;5086894;28;20052;-68
2022/06/15 03:51:12;;;;;;;6.38;4.35;;;;;;;17.16;53.67;99508.38;5087318;28;20114;-67
2022/06/15 03:53:39;;;;;;;5.35;3.88;;;;;;;17.33;53.87;99525.78;5086773;28;20057;-68
2022/06/15 03:56:06;;;;;;;9.23;4.78;;;;;;;17.29;54.08;99528.72;5086407;28;20106;-68
2022/06/15 03:58:35;;;;;;;6.47;4.60;;;;;;;17.36;54.02;99528.22;5086669;28;20102;-67
2022/06/15 04:01:02;;;;;;;7.97;4.65;;;;;;;17.28;54.16;99523.47;5086246;28;20110;-68
2022/06/15 04:03:29;;;;;;;8.07;4.35;;;;;;;17.38;54.25;99526.28;5086246;28;20056;-67
2022/06/15 04:05:59;;;;;;;4.70;4.20;;;;;;;17.39;53.85;99523.47;5086114;28;20056;-68
2022/06/15 04:08:42;;;;;;;7.07;4.15;;;;;;;17.42;53.31;99528.59;5086415;28;20255;-68
2022/06/15 04:11:58;;;;;;;6.57;4.28;;;;;;;17.42;54.30;99528.59;5085944;28;20044;-67
2022/06/15 04:14:00;;;;;;;7.47;6.00;;;;;;;17.46;53.70;99535.41;5085827;28;20251;-68
2022/06/15 04:16:28;;;;;;;5.80;4.45;;;;;;;17.46;53.34;99532.72;5086417;28;20060;-68
2022/06/15 04:18:55;;;;;;;7.13;5.35;;;;;;;17.54;52.89;99527.59;5085944;28;20106;-68
2022/06/15 04:21:22;;;;;;;7.63;5.78;;;;;;;17.60;52.68;99532.47;5086113;28;20113;-68
2022/06/15 04:23:50;;;;;;;6.47;4.50;;;;;;;17.67;52.87;99529.31;5086156;28;20110;-67
2022/06/15 04:26:17;;;;;;;7.00;5.57;;;;;;;17.67;53.01;99530.16;5086133;28;20316;-67
2022/06/15 04:28:44;;;;;;;5.78;4.53;;;;;;;17.71;52.79;99533.44;5085771;28;20056;-67
2022/06/15 04:31:13;;;;;;;9.98;4.93;;;;;;;17.74;52.40;99527.81;5086034;28;20304;-67
2022/06/15 04:33:40;;;;;;;12.23;8.50;;;;;;;17.77;52.60;99532.94;5085901;28;20064;-68
2022/06/15 04:36:08;;;;;;;6.95;5.30;;;;;;;17.67;52.68;99537.34;5085597;28;20052;-68
2022/06/15 04:38:35;;;;;;;8.05;6.03;;;;;;;17.59;53.31;99537.94;5085845;28;20255;-68
2022/06/15 04:41:03;;;;;;;6.22;4.70;;;;;;;17.65;52.95;99536.63;5085518;28;20110;-67
2022/06/15 04:43:31;;;;;;;6.90;4.53;;;;;;;17.76;52.24;99525.88;5085565;28;20056;-68
2022/06/15 04:45:58;;;;;;;6.75;5.30;;;;;;;17.81;53.13;99529.88;5085774;28;20109;-68
2022/06/15 04:48:26;;;;;;;8.60;5.63;;;;;;;17.85;52.86;99531.34;5085759;28;20101;-68
2022/06/15 04:50:55;;;;;;;16.02;6.82;;;;;;;17.83;53.36;99535.13;5085659;28;20048;-68
2022/06/15 04:53:22;;;;;;;8.73;6.45;;;;;;;17.86;53.26;99532.19;5085176;28;20048;-68
2022/06/15 04:55:49;;;;;;;5.85;5.00;;;;;;;17.88;53.91;99538.28;5085569;28;20247;-67
2022/06/15 04:58:16;;;;;;;10.80;4.45;;;;;;;17.88;53.83;99539.13;5085380;28;20113;-68
2022/06/15 05:00:46;;;;;;;8.02;4.40;;;;;;;17.97;53.43;99545.56;5085594;28;20086;-68
2022/06/15 05:03:13;;;;;;;6.95;4.82;;;;;;;17.98;53.87;99535.69;5085330;28;20083;-67
2022/06/15 05:05:42;;;;;;;8.00;4.80;;;;;;;17.97;54.01;99534.81;5085013;28;20382;-68
2022/06/15 05:08:09;;;;;;;6.03;4.68;;;;;;;17.84;54.27;99516.22;5085446;28;20064;-68
2022/06/15 05:10:36;;;;;;;6.25;4.60;;;;;;;17.99;53.92;99540.91;5085540;28;20098;-67
2022/06/15 05:13:03;;;;;;;9.20;5.88;;;;;;;17.78;55.21;99514.03;5085414;28;20097;-68
2022/06/15 05:15:31;;;;;;;7.30;5.50;;;;;;;17.92;54.27;99540.56;5085163;28;20053;-68
2022/06/15 05:18:03;;;;;;;7.32;5.97;;;;;;;17.99;54.86;99545.44;5085405;28;20118;-68
2022/06/15 05:20:30;;;;;;;10.48;7.57;;;;;;;17.98;54.39;99549.09;5084943;28;20049;-68
2022/06/15 05:22:58;;;;;;;9.63;5.60;;;;;;;17.95;53.83;99545.69;5084888;28;20052;-68
2022/06/15 05:25:26;;;;;;;7.65;5.75;;;;;;;18.01;53.65;99538.09;5085408;28;20103;-68
2022/06/15 05:27:54;;;;;;;7.68;5.82;;;;;;;18.03;54.08;99542.38;5085333;28;20060;-68
2022/06/15 05:30:21;;;;;;;5.63;4.60;;;;;;;18.04;53.78;99546.75;5085219;28;20316;-68
2022/06/15 05:32:48;;;;;;;8.18;5.93;;;;;;;17.99;53.82;99551.63;5085288;28;20052;-68
2022/06/15 05:35:15;;;;;;;9.85;5.80;;;;;;;18.08;53.66;99548.19;5084992;28;20117;-68
2022/06/15 05:37:42;;;;;;;8.60;7.28;;;;;;;18.09;53.75;99547.22;5085152;28;20057;-67
2022/06/15 05:40:12;;;;;;;9.93;6.20;;;;;;;18.03;54.11;99555.78;5084876;28;20071;-68
2022/06/15 05:42:39;;;;;;;9.68;6.93;;;;;;;18.07;53.93;99551.00;5085123;28;20113;-68
2022/06/15 05:45:08;;;;;;;10.88;5.97;;;;;;;17.94;54.21;99548.50;5084914;28;20064;-67
2022/06/15 05:47:35;;;;;;;8.40;5.28;;;;;;;17.60;54.76;99542.31;5085035;28;20049;-68
2022/06/15 05:50:02;;;;;;;8.82;6.13;;;;;;;17.76;54.62;99550.00;5084796;28;20064;-67
2022/06/15 05:52:30;;;;;;;8.40;5.82;;;;;;;17.90;54.99;99542.53;5085007;28;20052;-68
2022/06/15 05:54:58;;;;;;;9.25;6.13;;;;;;;17.98;54.11;99541.03;5084677;28;20134;-68
2022/06/15 05:57:28;;;;;;;8.10;5.47;;;;;;;18.07;53.87;99546.50;5085721;28;20239;-68
2022/06/15 05:59:56;;;;;;;9.07;5.40;;;;;;;17.94;54.00;99548.50;5084714;28;20086;-68
2022/06/15 06:02:26;;;;;;;5.88;5.13;;;;;;;18.02;53.93;99546.03;5084945;28;20106;-68
2022/06/15 06:04:54;;;;;;;6.50;5.68;;;;;;;17.39;54.34;99451.16;5086344;28;20052;-68
2022/06/15 06:07:22;;;;;;;8.50;4.80;;;;;;;18.07;54.02;99551.00;5088714;28;20052;-68
2022/06/15 06:09:50;;;;;;;6.18;5.25;;;;;;;18.02;54.47;99547.84;5088725;28;20259;-68
2022/06/15 06:12:18;;;;;;;8.35;5.45;;;;;;;18.11;53.67;99547.94;5088712;28;20247;-68
2022/06/15 06:14:47;;;;;;;9.48;5.63;;;;;;;18.15;53.94;99551.22;5088070;28;20052;-67
2022/06/15 06:17:14;;;;;;;9.52;5.50;;;;;;;18.21;53.61;99551.56;5088393;28;20101;-68
2022/06/15 06:19:41;;;;;;;8.32;6.05;;;;;;;18.22;53.53;99555.94;5088242;28;20201;-68
2022/06/15 06:22:08;;;;;;;10.90;6.28;;;;;;;18.24;53.89;99554.00;5088085;28;20056;-68
2022/06/15 06:24:36;;;;;;;12.35;6.13;;;;;;;18.28;53.66;99552.75;5088074;28;20052;-68
2022/06/15 06:27:05;;;;;;;11.07;5.85;;;;;;;18.31;53.76;99558.84;5088018;28;20378;-67
2022/06/15 06:29:32;;;;;;;8.80;6.18;;;;;;;18.31;53.14;99553.47;5088273;28;20110;-68
2022/06/15 06:32:02;;;;;;;10.27;6.40;;;;;;;18.30;53.33;99549.94;5088257;28;20079;-68
2022/06/15 06:34:30;;;;;;;11.13;6.28;;;;;;;18.30;53.46;99549.94;5088260;28;20085;-68
2022/06/15 06:36:59;;;;;;;14.68;7.45;;;;;;;18.31;53.21;99558.84;5088041;28;20056;-68
2022/06/15 06:39:29;;;;;;;7.80;6.20;;;;;;;18.04;52.99;99521.75;5088035;28;20246;-68
2022/06/15 06:41:58;;;;;;;8.88;6.50;;;;;;;18.33;53.11;99555.03;5087980;28;20040;-67
2022/06/15 06:44:25;;;;;;;7.68;6.32;;;;;;;18.35;52.90;99552.22;5088063;28;20090;-67
2022/06/15 06:46:53;;;;;;;10.70;6.43;;;;;;;18.42;52.73;99559.63;5087939;28;20048;-68
2022/06/15 06:49:23;;;;;;;8.30;5.88;;;;;;;18.48;52.65;99560.94;5087880;28;20316;-68
2022/06/15 06:51:51;;;;;;;9.98;5.97;;;;;;;18.40;52.38;99563.44;5087853;28;20056;-68
2022/06/15 06:54:20;;;;;;;8.02;6.03;;;;;;;18.44;52.29;99562.19;5087877;28;20057;-68
2022/06/15 06:56:48;;;;;;;7.88;5.32;;;;;;;18.53;52.46;99558.75;5087764;28;20048;-68
2022/06/15 06:59:17;;;;;;;7.15;5.32;;;;;;;18.55;52.60;99554.13;5087840;28;20105;-67
2022/06/15 07:01:46;;;;;;;6.80;5.03;;;;;;;18.64;52.28;99550.66;5087454;28;20056;-68
2022/06/15 07:04:14;;;;;;;7.72;5.15;;;;;;;18.69;52.16;99547.56;5087496;28;20052;-68
2022/06/15 07:06:43;;;;;;;8.20;5.60;;;;;;;18.67;52.02;99522.69;5087700;28;20057;-68
2022/06/15 07:09:11;;;;;;;7.32;5.25;;;;;;;18.92;51.58;99547.28;5087290;28;20048;-68
2022/06/15 07:11:41;;;;;;;7.78;4.47;;;;;;;18.97;51.26;99554.09;5087588;28;20174;-68
2022/06/15 07:14:08;;;;;;;7.50;4.63;;;;;;;19.05;51.52;99547.06;5086979;28;20057;-68
2022/06/15 07:16:38;;;;;;;10.95;5.70;;;;;;;18.77;51.02;99489.53;5086914;28;20366;-68
2022/06/15 07:19:05;;;;;;;5.88;4.88;;;;;;;19.24;50.91;99536.41;5087042;28;20255;-68
2022/06/15 07:21:32;;;;;;;7.80;4.63;;;;;;;19.43;50.64;99532.97;5087047;28;20102;-68
2022/06/15 07:24:01;;;;;;;7.35;5.13;;;;;;;19.59;50.60;99531.63;5087205;28;20106;-68
2022/06/15 07:26:30;;;;;;;6.78;4.55;;;;;;;19.68;50.54;99536.16;5087301;28;20247;-68
2022/06/15 07:28:58;;;;;;;10.82;4.97;;;;;;;19.77;50.27;99530.81;5087234;28;20097;-68
2022/06/15 07:31:29;;;;;;;8.02;4.45;;;;;;;19.84;49.73;99528.44;5087106;28;20056;-68
2022/06/15 07:33:57;;;;;;;6.35;4.30;;;;;;;19.60;49.99;99458.88;5087029;28;20044;-68
2022/06/15 07:36:25;;;;;;;6.80;4.53;;;;;;;20.16;49.52;99507.50;5086851;28;20060;-68
2022/06/15 07:38:54;;;;;;;6.35;3.92;;;;;;;19.49;49.25;99376.53;5087015;28;20083;-68
2022/06/15 07:41:24;;;;;;;7.20;4.72;;;;;;;20.66;48.46;99504.66;5086737;28;20110;-68
2022/06/15 07:43:53;;;;;;;5.80;4.63;;;;;;;20.85;48.60;99509.13;5086775;28;20238;-68
2022/06/15 07:46:21;;;;;;;9.27;4.32;;;;;;;20.93;47.93;99505.72;5086833;28;20048;-68
2022/06/15 07:51:34;;;;;;;;;;;;;;;21.00;48.06;99509.53;5087332;28;20082;-68
2022/06/15 07:54:04;;;;;;;4.97;3.65;;;;;;;21.17;47.93;99502.53;5086375;28;19991;-68
2022/06/15 07:56:33;;;;;;;5.45;3.83;;;;;;;21.36;47.42;99489.81;5086429;28;20113;-69
2022/06/15 07:59:00;;;;;;;5.85;3.45;;;;;;;21.63;46.87;99506.97;5086037;28;20064;-69
2022/06/15 08:01:27;;;;;;;5.90;3.70;;;;;;;21.52;46.51;99502.63;5086275;28;20060;-68
2022/06/15 08:03:55;;;;;;;3.67;3.22;;;;;;;21.47;46.14;99459.09;5085832;28;20106;-68
2022/06/15 08:06:23;;;;;;;7.03;3.63;;;;;;;21.56;45.84;99500.50;5085659;28;20323;-69
2022/06/15 08:08:51;;;;;;;6.53;3.38;;;;;;;21.61;45.88;99496.34;5086225;28;20052;-69
2022/06/15 08:11:19;;;;;;;7.18;3.40;;;;;;;21.73;45.80;99505.91;5085724;28;20106;-69
2022/06/15 08:13:49;;;;;;;5.95;3.75;;;;;;;21.82;45.75;99495.25;5086329;28;20121;-69
2022/06/15 08:16:19;;;;;;;9.23;3.15;;;;;;;22.10;45.85;99484.22;5086175;28;20057;-68
2022/06/15 08:18:49;;;;;;;5.15;2.92;;;;;;;22.06;45.12;99490.94;5086170;28;20057;-69
2022/06/15 08:21:20;;;;;;;6.47;2.95;;;;;;;22.22;45.04;99492.94;5085695;28;20056;-69
2022/06/15 08:23:50;;;;;;;5.13;2.88;;;;;;;22.41;44.86;99486.53;5085675;28;20074;-69
2022/06/15 08:26:21;;;;;;;6.03;3.65;;;;;;;22.66;44.17;99472.25;5085621;28;20097;-69
2022/06/15 08:28:52;;;;;;;4.75;3.65;;;;;;;22.66;43.65;99477.63;5085307;28;20270;-69
2022/06/15 08:31:20;;;;;;;4.70;2.83;;;;;;;22.78;43.84;99480.94;5085999;28;20060;-69
2022/06/15 08:33:47;;;;;;;5.50;3.00;;;;;;;22.79;43.45;99479.06;5085963;28;20078;-70
2022/06/15 08:36:15;;;;;;;7.78;3.22;;;;;;;22.84;43.98;99471.34;5085442;28;20048;-69
2022/06/15 08:38:43;;;;;;;5.82;3.17;;;;;;;23.07;43.68;99472.47;5085658;28;20063;-69
2022/06/15 08:41:21;;;;;;;5.47;3.10;;;;;;;23.03;43.05;99480.06;5085669;28;20068;-69
2022/06/15 08:44:08;;;;;;;5.35;3.05;;;;;;;22.94;42.96;99478.31;5085479;28;20052;-68
2022/06/15 08:46:47;;;;;;;6.55;3.15;;;;;;;22.93;43.09;99468.50;5085250;28;20308;-69
2022/06/15 08:49:38;;;;;;;6.07;3.78;;;;;;;23.14;43.23;99475.38;5085655;28;20079;-69
2022/06/15 08:52:14;;;;;;;6.32;3.15;;;;;;;23.10;43.17;99469.44;5085377;28;20056;-69
2022/06/15 08:54:51;;;;;;;8.52;2.92;;;;;;;23.35;43.33;99470.44;5085232;28;20052;-69
2022/06/15 08:57:24;;;;;;;7.22;3.65;;;;;;;23.42;42.53;99470.63;5085485;28;20113;-69
2022/06/15 08:59:58;;;;;;;6.00;3.80;;;;;;;23.45;42.38;99481.09;5085142;28;20056;-69
2022/06/15 09:02:32;;;;;;;5.97;3.63;;;;;;;23.32;42.75;99470.75;5085022;28;20057;-69
2022/06/15 09:05:07;;;;;;;5.95;4.15;;;;;;;23.20;42.96;99489.09;5085035;28;20060;-69
2022/06/15 09:07:54;;;;;;;7.60;3.30;;;;;;;23.28;42.50;99478.34;5085515;28;20110;-69
2022/06/15 09:10:34;;;;;;;7.78;3.17;;;;;;;23.27;42.29;99473.94;5085450;28;20048;-69
2022/06/15 09:13:16;;;;;;;6.45;2.85;;;;;;;23.29;42.22;99476.50;5085437;28;20064;-69
2022/06/15 09:15:52;;;;;;;5.85;3.47;;;;;;;23.34;41.93;99464.16;5085660;28;20175;-69
2022/06/15 09:18:26;;;;;;;6.30;3.35;;;;;;;23.55;42.13;99468.28;5085180;28;20098;-69
2022/06/15 09:20:58;;;;;;;6.03;3.47;;;;;;;23.69;41.66;99464.94;5085314;28;20064;-69
2022/06/15 09:23:31;;;;;;;5.15;3.53;;;;;;;23.67;42.02;99456.16;5085075;28;20052;-69
2022/06/15 09:26:03;;;;;;;7.45;3.65;;;;;;;23.76;41.90;99429.97;5085431;28;20110;-69
2022/06/15 09:28:35;;;;;;;5.05;2.90;;;;;;;24.17;40.94;99460.63;5085376;28;20308;-69
2022/06/15 09:31:10;;;;;;;8.30;3.40;;;;;;;24.11;39.94;99455.91;5085183;28;20308;-69
2022/06/15 09:33:41;;;;;;;6.65;3.70;;;;;;;24.11;40.50;99459.47;5085199;28;20105;-69
2022/06/15 09:36:13;;;;;;;4.53;3.03;;;;;;;24.05;40.39;99472.81;5085100;28;20254;-69
2022/06/15 09:38:41;;;;;;;8.45;2.88;;;;;;;24.01;40.67;99464.19;5086614;28;20056;-69
2022/06/15 09:41:17;;;;;;;6.57;3.13;;;;;;;24.08;40.14;99458.94;5088932;28;20223;-69
2022/06/15 09:43:54;;;;;;;6.63;3.22;;;;;;;24.17;40.19;99458.78;5088919;28;20056;-69
2022/06/15 09:46:29;;;;;;;7.68;3.60;;;;;;;24.18;40.25;99467.75;5088985;28;20056;-69
2022/06/15 09:49:07;;;;;;;4.88;2.72;;;;;;;24.25;40.30;99463.34;5088740;28;20117;-69
2022/06/15 09:51:46;;;;;;;4.05;3.10;;;;;;;24.16;40.66;99467.06;5089052;28;20056;-69
2022/06/15 09:54:23;;;;;;;8.10;3.83;;;;;;;24.27;40.11;99456.75;5088817;28;20102;-69
2022/06/15 09:56:51;;;;;;;4.28;3.25;;;;;;;22.66;40.62;99142.69;5088830;28;20098;-69
2022/06/15 09:59:21;;;;;;;7.38;3.70;;;;;;;24.61;40.71;99451.13;5088427;28;20056;-69
2022/06/15 10:01:50;;;;;;;4.22;2.97;;;;;;;24.56;40.03;99452.66;5088131;28;20052;-69
2022/06/15 10:04:25;;;;;;;8.00;3.00;;;;;;;24.61;40.46;99443.00;5088056;28;20060;-70
2022/06/15 10:06:56;;;;;;;4.95;3.00;;;;;;;24.78;40.57;99445.69;5088281;28;20057;-69
2022/06/15 10:09:28;;;;;;;6.22;3.10;;;;;;;24.86;40.08;99446.53;5087958;28;20266;-69
2022/06/15 10:12:55;;;;;;;6.35;3.67;;;;;;;25.07;40.28;99439.72;5088236;28;20316;-69
2022/06/15 10:14:48;;;;;;;4.22;2.70;;;;;;;24.98;39.60;99438.88;5087935;28;20044;-69
2022/06/15 10:17:28;;;;;;;5.80;3.35;;;;;;;24.94;39.53;99445.66;5088275;28;20056;-69
2022/06/15 10:19:58;;;;;;;5.28;3.25;;;;;;;24.53;40.50;99380.69;5088162;28;20060;-69
2022/06/15 10:22:29;;;;;;;5.05;2.88;;;;;;;24.97;40.45;99442.59;5088010;28;20338;-70
2022/06/15 10:24:59;;;;;;;7.90;3.88;;;;;;;25.08;40.07;99442.25;5088065;28;20105;-69
2022/06/15 10:27:32;;;;;;;4.68;2.97;;;;;;;25.20;39.12;99434.56;5087882;28;20328;-69
2022/06/15 10:30:13;;;;;;;6.80;3.90;;;;;;;25.49;39.14;99426.66;5087997;28;20068;-69
2022/06/15 10:33:00;;;;;;;6.88;3.90;;;;;;;25.42;38.54;99432.97;5088035;28;20101;-69
2022/06/15 10:35:30;;;;;;;6.07;3.53;;;;;;;25.23;39.24;99429.63;5087994;28;20053;-69
2022/06/15 10:38:01;;;;;;;6.50;3.28;;;;;;;25.12;39.69;99421.06;5088100;28;20304;-69
2022/06/15 10:40:31;;;;;;;4.55;3.00;;;;;;;24.49;39.65;99310.78;5087928;28;20056;-69
2022/06/15 10:43:03;;;;;;;6.57;3.63;;;;;;;25.09;39.61;99419.53;5087409;28;20102;-69
2022/06/15 10:45:35;;;;;;;4.70;2.85;;;;;;;25.10;40.25;99413.09;5087920;28;20056;-69
2022/06/15 10:48:08;;;;;;;6.20;3.00;;;;;;;25.18;39.24;99414.91;5087917;28;20362;-69
2022/06/15 10:50:44;;;;;;;6.72;3.15;;;;;;;25.22;39.16;99410.84;5087044;28;20247;-69
2022/06/15 10:53:27;;;;;;;7.75;3.63;;;;;;;25.02;39.42;99421.25;5087983;28;20250;-70
2022/06/15 11:04:29;;;;;;;5.95;3.05;;;;;;;25.45;39.53;99405.47;5087018;28;20056;-70
2022/06/15 11:07:04;;;;;;;6.43;3.22;;;;;;;25.55;39.15;99406.94;5087764;28;20048;-70
2022/06/15 11:09:34;;;;;;;6.15;3.35;;;;;;;25.47;39.39;99415.13;5087419;28;20056;-70
2022/06/15 11:12:06;;;;;;;5.38;2.97;;;;;;;25.47;39.13;99417.00;5087278;28;20048;-70
2022/06/15 11:14:43;;;;;;;6.57;3.20;;;;;;;25.35;39.41;99404.88;5087174;28;20122;-70
2022/06/15 11:20:23;;;;;;;5.53;3.13;;;;;;;25.53;38.41;99394.59;5087584;28;20114;-70
2022/06/15 11:22:53;;;;;;;4.85;2.90;;;;;;;25.68;38.02;99395.50;5086870;28;20048;-70
2022/06/15 11:25:26;;;;;;;4.93;2.95;;;;;;;25.48;38.25;99395.13;5086547;28;20048;-70
2022/06/15 11:28:00;;;;;;;4.82;3.08;;;;;;;25.47;38.65;99390.72;5086990;28;20060;-71
2022/06/15 11:30:32;;;;;;;4.38;2.72;;;;;;;25.41;38.86;99390.59;5086996;28;20102;-70
2022/06/15 11:33:03;;;;;;;3.85;2.72;;;;;;;25.67;39.26;99385.66;5086841;28;20102;-70
2022/06/15 11:35:38;;;;;;;4.70;3.13;;;;;;;25.62;38.33;99385.38;5087125;28;20056;-71
2022/06/15 11:38:15;;;;;;;7.57;3.00;;;;;;;25.33;38.46;99355.38;5086891;28;20056;-70
2022/06/15 11:40:49;;;;;;;4.65;3.20;;;;;;;25.26;38.95;99390.47;5086609;28;20086;-70
2022/06/15 11:43:20;;;;;;;5.85;3.00;;;;;;;24.67;39.18;99295.16;5086979;28;20173;-70
2022/06/15 11:45:58;;;;;;;7.28;2.90;;;;;;;25.31;39.28;99381.81;5086860;28;20060;-70
2022/06/15 11:48:41;;;;;;;6.15;3.05;;;;;;;25.45;38.88;99390.06;5086778;28;20102;-70
2022/06/15 11:51:25;;;;;;;4.18;2.95;;;;;;;25.50;38.73;99384.94;5086783;28;20251;-71
2022/06/15 11:54:06;;;;;;;7.93;3.20;;;;;;;25.53;38.02;99387.28;5086680;28;20064;-70
2022/06/15 11:56:41;;;;;;;4.38;2.80;;;;;;;25.47;38.79;99400.72;5086706;28;20057;-70
2022/06/15 11:59:19;;;;;;;6.53;3.75;;;;;;;25.31;39.11;99388.06;5086472;28;20098;-70
2022/06/15 12:01:54;;;;;;;4.63;3.00;;;;;;;25.12;38.60;99386.63;5086595;28;20048;-70
2022/06/15 12:04:35;;;;;;;4.53;2.92;;;;;;;25.12;38.74;99385.81;5086246;28;20102;-70
2022/06/15 12:07:12;;;;;;;5.10;2.95;;;;;;;25.14;39.42;99381.88;5086505;28;20060;-70